Louisville International Standiford Field
KSDF : rendu visible

Aérodrome :











RETROUVEZ-NOUS SUR...

 
LOGIN :

S'inscrire | Disclaimer

   EN    FR    IT 

 









Légende :    VFR   VFR Marginal   IFR   IFR Intensif   IFR Très Intensif
Visi : 
Plafond : 
>= 8 km
>= 3000ft
5 à 8 km
1000 à 3000 ft
1500m à 5 km
500 à 1000 ft
800 à 1500m
200 à 500 ft
< 800m
< 200 ft
Symboles :   Orages  Brouillard  Fortes neiges  Fortes précipitations  Vent > 20 kt






- Altitude de l'aérodrome : 501 ft
- Code IATA : SDF


KSDF - Louisville International Standiford Field

DERNIER METAR :
  • 221956Z 17013KT 10SM SCT050 28/16 A3006 RMK AO2 SLP176 T02830161

METARs EXPIRÉS :
  • 221856Z 19010G17KT 10SM FEW044 BKN060 28/17 A3009 RMK AO2 SLP183 T02830167
  • 221756Z 25009KT 10SM FEW037 BKN065 27/18 A3011 RMK AO2 SLP193 T02720183 10278 20161 58023

TAF KSDF
Valide du 22 à 18h jusqu'au 24 à 00h UTC


221731Z 2218/2324 21009KT P6SM BKN050
FM222300 15005KT P6SM SKC
FM231300 20010KT P6SM VCSH BKN040 WS020/22035KT
FM232000 21014G20KT 6SM -SHRA BR VCTS SCT025 BKN040CB
PROB30 2320/2324 4SM TSRA BKN025CB
FIR KZID / Amérique du Nord



MET'MAP, la Météo Aéronautique d'un coup d'oeil ! - Copyright ORBIFLY Décembre 2007 - Disclaimer

ORBIFLY MET'MAP TEAM :

Programmation & Développement : Alexandra Zaïnal
Sur une idée originale de : Baudouin d'Aumeries
Assistance à la programmation : Marc-Olivier Méhu
Soutien technique & logistique : Manuel Goepfert

Contact : metmap@orbifly.com




SOURCES & CREDITS :

   NOAA       Earth
Advisory